Terminal Aerodrome Forecast
Issued by NWS

Home | Current Version | Previous Version | Text Only | Print | Product List | Glossary On
Versions: 1 2 3 4 5 6 7 8 9 10 11 12 13 14 15 16 17 18 19 20 21 22 23 24 25 26 27 28 29 30 31 32 33 34 35 36 37 38 39 40 41 42 43 44
000
FTUS46 KOTX 271801 CCA
TAFPUW
TAF COR
KPUW 271801Z 2718/2818 23006KT 6SM FU HZ FEW030
     FM272000 26008G14KT 6SM FU HZ SCT200
     FM280300 VRB03KT P6SM FEW200
     FM281200 09003KT 6SM FU HZ BKN150 OVC200=

USA.gov is the U.S. government's official web portal to all federal, state and local government web resources and services.